createdAt,value
2022-12-18T00:18:01.370Z,-6.36
2022-12-18T00:46:49.392Z,-6.25
2022-12-18T01:15:36.475Z,-6.47
2022-12-18T01:44:34.587Z,-6.27
2022-12-18T02:13:28.455Z,-6.52
2022-12-18T02:42:13.782Z,-6.61
2022-12-18T03:11:05.262Z,-6.36
2022-12-18T03:39:21.608Z,-6.4
2022-12-18T04:07:57.142Z,-6.59
2022-12-18T04:36:32.631Z,-7.07
2022-12-18T05:05:06.370Z,-7.38
2022-12-18T05:33:40.356Z,-7.56
2022-12-18T06:02:03.238Z,-7.51
2022-12-18T06:30:37.030Z,-7.21
2022-12-18T06:59:22.930Z,-7.77
2022-12-18T07:27:45.937Z,-7.8
2022-12-18T07:56:29.860Z,-7.33
2022-12-18T08:24:38.387Z,-7.8
2022-12-18T08:53:39.084Z,-7.04
2022-12-18T09:21:55.833Z,-6.74
2022-12-18T09:50:17.945Z,-6.46
2022-12-18T10:18:35.266Z,-6.07
2022-12-18T10:46:49.110Z,-6.3
2022-12-18T11:15:33.110Z,-5.68
2022-12-18T11:43:51.285Z,-4.92
2022-12-18T12:16:50.981Z,-4.74
2022-12-18T12:44:57.829Z,-5.31
2022-12-18T13:13:03.672Z,-5.11
2022-12-18T13:41:19.203Z,-5
2022-12-18T14:09:37.143Z,-4.9
2022-12-18T14:37:52.718Z,-4.93
2022-12-18T15:06:14.554Z,-5.07
2022-12-18T15:34:26.500Z,-5.47
2022-12-18T16:02:53.768Z,-5.13
2022-12-18T16:31:12.467Z,-5.26
2022-12-18T16:59:34.533Z,-5.47
2022-12-18T17:28:00.484Z,-5.31
2022-12-18T17:56:19.727Z,-5.63
2022-12-18T18:24:45.214Z,-5.21
2022-12-18T18:53:06.882Z,-5.01
2022-12-18T19:21:53.349Z,-4.97
2022-12-18T19:49:54.662Z,-4.91
2022-12-18T20:18:09.070Z,-4.93
2022-12-18T20:46:25.367Z,-4.92
2022-12-18T21:14:57.690Z,-4.5
2022-12-18T21:43:18.217Z,-4.4
2022-12-18T22:11:29.182Z,-4.24
2022-12-18T22:40:08.611Z,-4.23
2022-12-18T23:08:58.691Z,-3.9
2022-12-18T23:37:50.180Z,-3.72
